createdAt,value
2019-05-15T00:01:08.842Z,4.20
2019-05-15T00:03:58.545Z,4.30
2019-05-15T00:06:48.640Z,4.40
2019-05-15T00:09:41.214Z,4.40
2019-05-15T00:12:28.287Z,4.40
2019-05-15T00:15:18.069Z,4.40
2019-05-15T00:18:05.633Z,4.30
2019-05-15T00:20:53.783Z,4.30
2019-05-15T00:23:49.261Z,4.30
2019-05-15T00:26:38.374Z,4.40
2019-05-15T00:29:28.892Z,4.40
2019-05-15T00:32:20.478Z,4.50
2019-05-15T00:35:10.228Z,4.50
2019-05-15T00:37:58.575Z,4.60
2019-05-15T00:40:49.512Z,4.60
2019-05-15T00:43:38.687Z,4.70
2019-05-15T00:46:30.090Z,4.60
2019-05-15T00:49:18.941Z,4.60
2019-05-15T00:52:11.955Z,4.60
2019-05-15T00:54:58.991Z,4.60
2019-05-15T00:57:48.521Z,4.60
2019-05-15T01:00:43.986Z,4.50
2019-05-15T01:03:35.238Z,4.40
2019-05-15T01:06:23.070Z,4.40
2019-05-15T01:09:10.999Z,4.30
2019-05-15T01:11:59.048Z,4.30
2019-05-15T01:14:49.037Z,4.30
2019-05-15T01:17:39.022Z,4.30
2019-05-15T01:20:30.187Z,4.30
2019-05-15T01:23:21.282Z,4.30
2019-05-15T01:26:14.663Z,4.30
2019-05-15T01:29:02.519Z,4.30
2019-05-15T01:31:50.035Z,4.30
2019-05-15T01:34:38.481Z,4.30
2019-05-15T01:37:28.191Z,4.30
2019-05-15T01:40:18.197Z,4.30
2019-05-15T01:43:06.016Z,4.30
2019-05-15T01:45:54.126Z,4.30
2019-05-15T01:48:42.103Z,4.30
2019-05-15T01:51:30.423Z,4.30
2019-05-15T01:54:18.792Z,4.30
2019-05-15T01:57:09.138Z,4.30
2019-05-15T01:59:58.325Z,4.40
2019-05-15T02:02:45.241Z,4.40
2019-05-15T02:05:32.989Z,4.40
2019-05-15T02:08:20.622Z,4.50
2019-05-15T02:11:09.071Z,4.50
2019-05-15T02:13:58.621Z,4.50
2019-05-15T02:16:48.345Z,4.50
2019-05-15T02:19:35.814Z,4.50
2019-05-15T02:22:23.515Z,4.50
2019-05-15T02:25:11.441Z,4.50
2019-05-15T02:27:58.892Z,4.50
2019-05-15T02:30:50.076Z,4.50
2019-05-15T02:33:39.565Z,4.50
2019-05-15T02:36:29.053Z,4.50
2019-05-15T02:39:15.179Z,4.50
2019-05-15T02:42:03.032Z,4.60
2019-05-15T02:44:51.484Z,4.60
2019-05-15T02:47:39.941Z,4.60
2019-05-15T02:50:29.137Z,4.60
2019-05-15T02:53:19.094Z,4.70
2019-05-15T02:56:09.406Z,4.70
2019-05-15T02:58:55.943Z,4.70
2019-05-15T03:01:43.260Z,4.70
2019-05-15T03:04:31.106Z,4.80
2019-05-15T03:07:19.318Z,4.80
2019-05-15T03:10:09.375Z,4.80
2019-05-15T03:13:00.074Z,4.80
2019-05-15T03:15:48.927Z,4.80
2019-05-15T03:18:34.990Z,4.80
2019-05-15T03:21:22.779Z,4.80
2019-05-15T03:24:10.486Z,4.70
2019-05-15T03:26:59.304Z,4.70
2019-05-15T03:29:49.405Z,4.60
2019-05-15T03:32:50.799Z,4.70
2019-05-15T03:35:32.202Z,4.70
2019-05-15T03:38:19.219Z,4.70
2019-05-15T03:41:05.136Z,4.70
2019-05-15T03:43:52.786Z,4.70
2019-05-15T03:46:40.814Z,4.70
2019-05-15T03:49:29.374Z,4.70
2019-05-15T03:52:19.068Z,4.70
2019-05-15T03:55:10.668Z,4.60
2019-05-15T03:57:59.204Z,4.60
2019-05-15T04:00:45.304Z,4.70
2019-05-15T04:03:33.311Z,4.60
2019-05-15T04:06:21.438Z,4.60
2019-05-15T04:09:09.803Z,4.60
2019-05-15T04:11:59.983Z,4.60
2019-05-15T04:14:49.949Z,4.60
2019-05-15T04:17:39.616Z,4.60
2019-05-15T04:20:29.459Z,4.60
2019-05-15T04:23:22.274Z,4.60
2019-05-15T04:26:12.050Z,4.60
2019-05-15T04:29:00.399Z,4.60
2019-05-15T04:31:55.674Z,4.60
2019-05-15T04:34:39.686Z,4.60
2019-05-15T04:37:29.936Z,4.60
2019-05-15T04:40:19.175Z,4.60
2019-05-15T04:43:06.095Z,4.60
2019-05-15T04:45:53.741Z,4.60
2019-05-15T04:48:41.880Z,4.60
2019-05-15T04:51:30.394Z,4.60
2019-05-15T04:54:20.063Z,4.70
2019-05-15T04:57:09.204Z,4.60
2019-05-15T04:59:58.713Z,4.70
2019-05-15T05:02:49.500Z,4.70
2019-05-15T05:05:38.807Z,4.70
2019-05-15T05:08:28.722Z,4.70
2019-05-15T05:11:15.298Z,4.70
2019-05-15T05:14:03.253Z,4.70
2019-05-15T05:16:51.074Z,4.70
2019-05-15T05:19:40.194Z,4.70
2019-05-15T05:22:28.454Z,4.70
2019-05-15T05:25:18.204Z,4.70
2019-05-15T05:28:05.677Z,4.70
2019-05-15T05:30:53.224Z,4.70
2019-05-15T05:33:40.783Z,4.70
2019-05-15T05:36:28.601Z,4.80
2019-05-15T05:39:17.689Z,4.80
2019-05-15T05:42:07.786Z,4.80
2019-05-15T05:44:55.060Z,4.80
2019-05-15T05:47:42.875Z,4.80
2019-05-15T05:50:44.634Z,4.80
2019-05-15T05:53:32.274Z,4.60
2019-05-15T05:56:20.314Z,4.70
2019-05-15T05:59:09.405Z,4.60
2019-05-15T06:01:58.946Z,4.50
2019-05-15T06:04:47.943Z,4.60
2019-05-15T06:07:35.769Z,4.70
2019-05-15T06:10:23.251Z,4.80
2019-05-15T06:13:10.985Z,4.80
2019-05-15T06:15:59.062Z,4.80
2019-05-15T06:18:49.058Z,4.80
2019-05-15T06:21:39.169Z,4.80
2019-05-15T06:24:25.701Z,4.90
2019-05-15T06:27:13.838Z,5.00
2019-05-15T06:30:02.870Z,5.00
2019-05-15T06:33:04.557Z,5.00
2019-05-15T06:35:39.726Z,5.00
2019-05-15T06:38:30.866Z,5.10
2019-05-15T06:41:18.119Z,5.20
2019-05-15T06:44:07.921Z,5.20
2019-05-15T06:46:55.655Z,5.20
2019-05-15T06:49:43.546Z,5.20
2019-05-15T06:52:31.382Z,5.30
2019-05-15T06:55:19.190Z,5.30
2019-05-15T06:58:09.057Z,5.40
2019-05-15T07:00:58.972Z,5.40
2019-05-15T07:03:48.252Z,5.40
2019-05-15T07:06:37.905Z,5.40
2019-05-15T07:09:25.309Z,5.40
2019-05-15T07:12:13.332Z,5.40
2019-05-15T07:15:01.147Z,5.40
2019-05-15T07:17:49.094Z,5.40
2019-05-15T07:20:39.106Z,5.40
2019-05-15T07:23:30.463Z,5.50
2019-05-15T07:26:18.342Z,5.40
2019-05-15T07:29:07.884Z,5.50
2019-05-15T07:31:58.456Z,5.50
2019-05-15T07:34:45.590Z,5.50
2019-05-15T07:37:33.522Z,5.60
2019-05-15T07:40:22.364Z,5.60
2019-05-15T07:43:09.995Z,5.60
2019-05-15T07:45:59.077Z,5.60
2019-05-15T07:48:49.143Z,5.50
2019-05-15T07:51:38.204Z,5.50
2019-05-15T07:54:28.743Z,5.50
2019-05-15T07:57:15.890Z,5.60
2019-05-15T08:00:04.166Z,5.60
2019-05-15T08:02:52.143Z,5.40
2019-05-15T08:05:55.027Z,5.30
2019-05-15T08:08:29.680Z,5.40
2019-05-15T08:11:24.119Z,5.40
2019-05-15T08:14:08.922Z,5.40
2019-05-15T08:16:58.931Z,5.50
2019-05-15T08:19:45.903Z,5.50
2019-05-15T08:22:33.998Z,5.50
2019-05-15T08:25:32.329Z,5.40
2019-05-15T08:28:12.028Z,5.50
2019-05-15T08:31:00.061Z,5.50
2019-05-15T08:33:48.198Z,5.50
2019-05-15T08:36:38.400Z,5.50
2019-05-15T08:39:28.333Z,5.50
2019-05-15T08:42:15.722Z,5.60
2019-05-15T08:45:03.746Z,5.70
2019-05-15T08:47:51.640Z,5.80
2019-05-15T08:50:39.184Z,5.90
2019-05-15T08:53:28.491Z,5.90
2019-05-15T08:56:19.431Z,5.80
2019-05-15T08:59:08.706Z,5.80
2019-05-15T09:01:58.175Z,5.80
2019-05-15T09:04:45.758Z,5.70
2019-05-15T09:07:33.837Z,5.70
2019-05-15T09:10:21.597Z,5.80
2019-05-15T09:13:09.740Z,5.90
2019-05-15T09:15:58.929Z,6.00
2019-05-15T09:18:48.506Z,6.10
2019-05-15T09:21:38.736Z,6.00
2019-05-15T09:24:28.412Z,6.10
2019-05-15T09:27:15.715Z,6.10
2019-05-15T09:30:03.855Z,6.00
2019-05-15T09:32:51.616Z,6.00
2019-05-15T09:35:39.556Z,6.00
2019-05-15T09:38:28.905Z,6.10
2019-05-15T09:41:17.931Z,6.20
2019-05-15T09:44:07.945Z,6.20
2019-05-15T09:46:55.361Z,6.10
2019-05-15T09:49:43.246Z,6.20
2019-05-15T09:52:30.938Z,6.30
2019-05-15T09:55:19.450Z,6.50
2019-05-15T09:58:08.358Z,6.70
2019-05-15T10:00:56.106Z,6.70
2019-05-15T10:03:44.649Z,6.80
2019-05-15T10:06:33.576Z,6.90
2019-05-15T10:09:21.634Z,7.00
2019-05-15T10:12:09.752Z,6.90
2019-05-15T10:14:59.198Z,6.90
2019-05-15T10:17:50.769Z,6.90
2019-05-15T10:20:36.061Z,7.10
2019-05-15T10:23:23.679Z,7.20
2019-05-15T10:26:13.981Z,7.40
2019-05-15T10:29:00.725Z,7.40
2019-05-15T10:31:48.516Z,7.20
2019-05-15T10:34:38.341Z,7.40
2019-05-15T10:37:28.261Z,7.50
2019-05-15T10:40:15.482Z,7.50
2019-05-15T10:43:03.360Z,7.40
2019-05-15T10:45:54.564Z,7.00
2019-05-15T10:48:40.633Z,7.10
2019-05-15T10:51:28.803Z,7.10
2019-05-15T10:54:19.002Z,7.30
2019-05-15T10:57:08.525Z,7.30
2019-05-15T10:59:55.299Z,7.30
2019-05-15T11:02:42.965Z,7.20
2019-05-15T11:05:41.126Z,7.00
2019-05-15T11:08:20.096Z,7.20
2019-05-15T11:11:09.185Z,7.30
2019-05-15T11:14:00.242Z,7.40
2019-05-15T11:16:48.693Z,7.10
2019-05-15T11:19:37.258Z,7.10
2019-05-15T11:22:24.819Z,6.90
2019-05-15T11:25:12.248Z,6.80
2019-05-15T11:28:00.036Z,6.80
2019-05-15T11:30:48.864Z,6.80
2019-05-15T11:33:38.469Z,6.80
2019-05-15T11:36:25.775Z,6.80
2019-05-15T11:39:13.806Z,6.90
2019-05-15T11:42:01.926Z,6.90
2019-05-15T11:44:53.230Z,6.90
2019-05-15T11:47:40.191Z,7.00
2019-05-15T11:50:29.296Z,7.00
2019-05-15T11:53:19.207Z,7.10
2019-05-15T11:56:09.532Z,7.20
2019-05-15T11:58:56.689Z,7.30
2019-05-15T12:01:44.725Z,7.50
2019-05-15T12:04:34.231Z,7.50
2019-05-15T12:07:22.463Z,7.30
2019-05-15T12:10:10.999Z,7.60
2019-05-15T12:12:59.016Z,7.70
2019-05-15T12:15:48.425Z,7.80
2019-05-15T12:18:38.832Z,7.70
2019-05-15T12:21:25.346Z,7.60
2019-05-15T12:24:13.184Z,7.50
2019-05-15T12:27:13.936Z,7.50
2019-05-15T12:29:50.445Z,7.70
2019-05-15T12:32:40.437Z,7.90
2019-05-15T12:35:29.501Z,8.10
2019-05-15T12:38:18.690Z,8.10
2019-05-15T13:00:53.285Z,8.50
2019-05-15T13:03:41.273Z,8.30
2019-05-15T13:06:28.869Z,7.80
2019-05-15T13:09:16.274Z,7.50
2019-05-15T13:12:03.966Z,7.80
2019-05-15T13:14:52.025Z,7.90
2019-05-15T13:17:40.099Z,8.20
2019-05-15T13:20:28.866Z,8.40
2019-05-15T13:23:16.718Z,8.60
2019-05-15T13:26:04.335Z,8.20
2019-05-15T13:28:52.119Z,7.50
2019-05-15T13:31:40.223Z,7.60
2019-05-15T13:34:30.730Z,7.70
2019-05-15T13:37:26.723Z,8.00
2019-05-15T13:40:07.364Z,7.80
2019-05-15T13:42:54.593Z,7.80
2019-05-15T13:45:42.096Z,7.80
2019-05-15T13:48:30.050Z,7.60
2019-05-15T13:51:18.216Z,7.80
2019-05-15T13:54:08.660Z,8.20
2019-05-15T13:56:58.227Z,8.10
2019-05-15T13:59:48.181Z,8.10
2019-05-15T14:02:34.704Z,8.10
2019-05-15T14:05:22.051Z,7.80
2019-05-15T14:08:09.838Z,8.00
2019-05-15T14:10:58.260Z,8.40
2019-05-15T14:13:48.538Z,8.30
2019-05-15T14:16:38.203Z,8.10
2019-05-15T14:19:24.612Z,7.90
2019-05-15T14:22:12.415Z,7.90
2019-05-15T14:24:59.909Z,8.00
2019-05-15T14:27:48.629Z,7.80
2019-05-15T14:30:36.549Z,7.60
2019-05-15T14:33:24.308Z,7.60
2019-05-15T14:36:11.712Z,7.90
2019-05-15T14:38:59.245Z,8.10
2019-05-15T14:41:49.209Z,8.30
2019-05-15T14:44:38.191Z,8.50
2019-05-15T14:47:26.414Z,8.20
2019-05-15T14:50:14.362Z,8.00
2019-05-15T14:53:03.014Z,7.90
2019-05-15T14:55:51.095Z,7.50
2019-05-15T14:58:39.353Z,7.80
2019-05-15T15:01:27.279Z,7.80
2019-05-15T15:04:15.172Z,7.90
2019-05-15T15:07:02.625Z,7.70
2019-05-15T15:09:50.826Z,7.80
2019-05-15T15:12:39.597Z,7.80
2019-05-15T15:15:28.731Z,7.90
2019-05-15T15:18:18.481Z,8.00
2019-05-15T15:21:05.939Z,7.70
2019-05-15T15:23:54.017Z,7.70
2019-05-15T15:26:46.423Z,7.70
2019-05-15T15:29:39.009Z,7.70
2019-05-15T15:32:30.150Z,8.00
2019-05-15T15:35:22.129Z,8.10
2019-05-15T15:38:27.106Z,8.00
2019-05-15T15:41:09.044Z,8.10
2019-05-15T15:44:02.380Z,8.30
2019-05-15T15:46:50.145Z,8.20
2019-05-15T15:49:38.824Z,8.30
2019-05-15T15:52:28.991Z,8.40
2019-05-15T15:55:18.416Z,8.30
2019-05-15T15:58:08.811Z,8.20
2019-05-15T16:00:55.998Z,8.20
2019-05-15T16:03:43.947Z,8.30
2019-05-15T16:06:31.391Z,8.40
2019-05-15T16:09:18.957Z,8.00
2019-05-15T16:12:09.253Z,8.00
2019-05-15T16:14:57.943Z,7.90
2019-05-15T16:17:45.593Z,7.70
2019-05-15T16:20:33.818Z,7.80
2019-05-15T16:23:22.141Z,7.80
2019-05-15T16:26:09.935Z,8.00
2019-05-15T16:29:01.476Z,7.70
2019-05-15T16:31:49.242Z,7.70
2019-05-15T16:34:39.210Z,7.80
2019-05-15T16:37:26.066Z,7.70
2019-05-15T16:40:14.998Z,7.60
2019-05-15T16:43:02.959Z,7.70
2019-05-15T16:45:52.211Z,7.80
2019-05-15T16:48:41.712Z,7.60
2019-05-15T16:51:32.351Z,7.70
2019-05-15T16:54:19.226Z,7.70
2019-05-15T16:57:09.436Z,7.80
2019-05-15T16:59:58.428Z,7.80
2019-05-15T17:02:48.058Z,7.90
2019-05-15T17:05:34.928Z,8.00
2019-05-15T17:08:22.440Z,7.80
2019-05-15T17:11:10.517Z,7.80
2019-05-15T17:13:59.194Z,7.90
2019-05-15T17:16:48.093Z,7.90
2019-05-15T17:19:35.653Z,7.80
2019-05-15T17:22:23.847Z,7.90
2019-05-15T17:25:11.625Z,7.80
2019-05-15T17:27:59.344Z,7.70
2019-05-15T17:30:48.879Z,7.50
2019-05-15T17:33:38.112Z,7.50
2019-05-15T17:36:29.635Z,7.30
2019-05-15T17:39:15.087Z,7.40
2019-05-15T17:42:02.841Z,7.40
2019-05-15T17:44:50.806Z,7.50
2019-05-15T17:47:40.750Z,7.40
2019-05-15T17:50:28.430Z,7.50
2019-05-15T17:53:18.150Z,7.60
2019-05-15T17:56:06.094Z,7.50
2019-05-15T17:58:54.155Z,7.50
2019-05-15T18:01:42.096Z,7.50
2019-05-15T18:04:30.082Z,7.50
2019-05-15T18:07:17.553Z,7.60
2019-05-15T18:10:08.182Z,7.60
2019-05-15T18:12:55.162Z,7.60
2019-05-15T18:15:42.910Z,7.60
2019-05-15T18:18:30.946Z,7.60
2019-05-15T18:21:19.098Z,7.60
2019-05-15T18:24:09.331Z,7.60
2019-05-15T18:26:58.390Z,7.50
2019-05-15T18:29:47.928Z,7.60
2019-05-15T18:32:35.271Z,7.60
2019-05-15T18:35:22.850Z,7.50
2019-05-15T18:38:10.632Z,7.50
2019-05-15T18:40:58.767Z,7.50
2019-05-15T18:43:48.367Z,7.40
2019-05-15T18:46:38.160Z,7.30
2019-05-15T18:49:28.398Z,7.30
2019-05-15T18:52:18.020Z,7.30
2019-05-15T18:55:08.044Z,7.20
2019-05-15T18:57:55.501Z,7.20
2019-05-15T19:00:42.946Z,7.20
2019-05-15T19:03:30.862Z,7.20
2019-05-15T19:06:18.726Z,7.20
2019-05-15T19:09:08.145Z,7.20
2019-05-15T19:11:58.186Z,7.10
2019-05-15T19:14:45.759Z,7.20
2019-05-15T19:17:33.486Z,7.20
2019-05-15T19:20:21.828Z,7.20
2019-05-15T19:23:09.326Z,7.10
2019-05-15T19:25:57.932Z,7.20
2019-05-15T19:28:48.395Z,7.20
2019-05-15T19:31:35.083Z,7.10
2019-05-15T19:34:22.981Z,7.10
2019-05-15T19:37:10.710Z,7.00
2019-05-15T19:39:58.736Z,6.90
2019-05-15T19:42:48.769Z,6.80
2019-05-15T19:45:38.725Z,6.80
2019-05-15T19:48:26.743Z,6.90
2019-05-15T19:51:14.773Z,6.90
2019-05-15T19:54:02.291Z,6.90
2019-05-15T19:56:50.008Z,6.70
2019-05-15T19:59:38.243Z,6.80
2019-05-15T20:02:28.424Z,6.80
2019-05-15T20:05:15.121Z,6.80
2019-05-15T20:08:03.403Z,6.80
2019-05-15T20:10:51.042Z,6.80
2019-05-15T20:13:38.784Z,6.80
2019-05-15T20:16:28.193Z,6.80
2019-05-15T20:19:15.471Z,6.80
2019-05-15T20:22:03.694Z,6.80
2019-05-15T20:24:51.732Z,6.80
2019-05-15T20:27:39.527Z,6.80
2019-05-15T20:30:28.542Z,6.80
2019-05-15T20:33:17.998Z,6.80
2019-05-15T20:36:08.850Z,6.80
2019-05-15T20:38:58.592Z,6.80
2019-05-15T20:41:45.862Z,6.80
2019-05-15T20:44:33.514Z,6.70
2019-05-15T20:47:21.385Z,6.70
2019-05-15T20:50:09.670Z,6.70
2019-05-15T20:52:58.771Z,6.80
2019-05-15T20:55:48.423Z,6.70
2019-05-15T20:58:38.267Z,6.70
2019-05-15T21:01:28.577Z,6.70
2019-05-15T21:04:20.659Z,6.70
2019-05-15T21:07:05.383Z,6.70
2019-05-15T21:09:53.071Z,6.70
2019-05-15T21:12:41.439Z,6.70
2019-05-15T21:15:29.497Z,6.70
2019-05-15T21:18:20.169Z,6.70
2019-05-15T21:21:10.385Z,6.70
2019-05-15T21:23:57.975Z,6.70
2019-05-15T21:26:48.911Z,6.80
2019-05-15T21:29:38.207Z,6.70
2019-05-15T21:32:28.517Z,6.70
2019-05-15T21:35:17.857Z,6.70
2019-05-15T21:38:05.709Z,6.80
2019-05-15T21:40:54.007Z,6.70
2019-05-15T21:43:42.105Z,6.60
2019-05-15T21:46:30.299Z,6.50
2019-05-15T21:49:19.187Z,6.50
2019-05-15T21:52:06.873Z,6.50
2019-05-15T21:54:54.730Z,6.40
2019-05-15T21:57:42.830Z,6.40
2019-05-15T22:00:38.272Z,6.40
2019-05-15T22:03:28.490Z,6.30
2019-05-15T22:06:18.525Z,6.30
2019-05-15T22:09:09.703Z,6.30
2019-05-15T22:12:01.119Z,6.40
2019-05-15T22:14:49.180Z,6.40
2019-05-15T22:17:38.640Z,6.30
2019-05-15T22:20:29.934Z,6.30
2019-05-15T22:23:18.500Z,6.20
2019-05-15T22:26:07.618Z,6.20
2019-05-15T22:28:55.583Z,6.30
2019-05-15T22:31:43.497Z,6.30
2019-05-15T22:34:31.375Z,6.30
2019-05-15T22:37:21.539Z,6.30
2019-05-15T22:40:09.551Z,6.30
2019-05-15T22:42:59.288Z,6.20
2019-05-15T22:45:48.272Z,6.20
2019-05-15T22:48:38.053Z,6.20
2019-05-15T22:51:35.349Z,6.20
2019-05-15T22:54:23.932Z,6.20
2019-05-15T22:57:11.706Z,6.20
2019-05-15T22:59:59.789Z,6.20
2019-05-15T23:02:48.832Z,6.20
2019-05-15T23:05:37.503Z,6.20
2019-05-15T23:08:25.528Z,6.20
2019-05-15T23:11:14.219Z,6.20
2019-05-15T23:14:01.759Z,6.20
2019-05-15T23:16:49.771Z,6.20
2019-05-15T23:19:38.536Z,6.20
2019-05-15T23:22:27.968Z,6.20
2019-05-15T23:25:18.093Z,6.20
2019-05-15T23:28:08.099Z,6.20
2019-05-15T23:30:57.587Z,6.10
2019-05-15T23:33:45.425Z,6.20
2019-05-15T23:36:33.226Z,6.20
2019-05-15T23:39:23.400Z,6.20
2019-05-15T23:42:13.522Z,6.20
2019-05-15T23:45:01.705Z,6.20
2019-05-15T23:47:49.980Z,6.10
2019-05-15T23:50:40.913Z,6.10
2019-05-15T23:53:29.047Z,6.00
2019-05-15T23:56:19.136Z,6.00
2019-05-15T23:59:08.399Z,6.00
